sensor_id;sensor_type;location;lat;lon;timestamp;P1;durP1;ratioP1;P2;durP2;ratioP2
15946;SDS011;8072;52.554;7.966;2023-03-11T00:02:08;4.97;;;3.40;;
15946;SDS011;8072;52.554;7.966;2023-03-11T00:04:34;4.03;;;2.93;;
15946;SDS011;8072;52.554;7.966;2023-03-11T00:07:01;6.03;;;3.37;;
15946;SDS011;8072;52.554;7.966;2023-03-11T00:09:29;3.47;;;2.83;;
15946;SDS011;8072;52.554;7.966;2023-03-11T00:11:55;5.47;;;3.00;;
15946;SDS011;8072;52.554;7.966;2023-03-11T00:14:21;4.83;;;3.40;;
15946;SDS011;8072;52.554;7.966;2023-03-11T00:16:46;7.40;;;3.37;;
15946;SDS011;8072;52.554;7.966;2023-03-11T00:19:12;3.90;;;3.40;;
15946;SDS011;8072;52.554;7.966;2023-03-11T00:21:38;3.50;;;3.20;;
15946;SDS011;8072;52.554;7.966;2023-03-11T00:24:04;6.83;;;3.17;;
15946;SDS011;8072;52.554;7.966;2023-03-11T00:26:30;5.30;;;3.10;;
15946;SDS011;8072;52.554;7.966;2023-03-11T00:28:56;7.80;;;3.50;;
15946;SDS011;8072;52.554;7.966;2023-03-11T00:31:21;6.13;;;2.83;;
15946;SDS011;8072;52.554;7.966;2023-03-11T00:33:50;6.77;;;3.07;;
15946;SDS011;8072;52.554;7.966;2023-03-11T00:36:20;7.97;;;3.40;;
15946;SDS011;8072;52.554;7.966;2023-03-11T00:38:55;7.53;;;3.00;;
15946;SDS011;8072;52.554;7.966;2023-03-11T00:41:22;5.87;;;3.53;;
15946;SDS011;8072;52.554;7.966;2023-03-11T00:43:48;4.83;;;3.00;;
15946;SDS011;8072;52.554;7.966;2023-03-11T00:46:13;6.17;;;3.03;;
15946;SDS011;8072;52.554;7.966;2023-03-11T00:48:39;4.50;;;2.80;;
15946;SDS011;8072;52.554;7.966;2023-03-11T00:51:06;5.53;;;3.03;;
15946;SDS011;8072;52.554;7.966;2023-03-11T00:53:35;6.93;;;3.30;;
15946;SDS011;8072;52.554;7.966;2023-03-11T00:56:05;4.90;;;2.70;;
15946;SDS011;8072;52.554;7.966;2023-03-11T00:58:32;5.43;;;3.03;;
15946;SDS011;8072;52.554;7.966;2023-03-11T01:01:00;4.87;;;3.40;;
15946;SDS011;8072;52.554;7.966;2023-03-11T01:03:34;4.10;;;2.70;;
15946;SDS011;8072;52.554;7.966;2023-03-11T01:06:00;3.17;;;2.80;;
15946;SDS011;8072;52.554;7.966;2023-03-11T01:08:26;3.47;;;2.87;;
15946;SDS011;8072;52.554;7.966;2023-03-11T01:10:53;2.97;;;2.73;;
15946;SDS011;8072;52.554;7.966;2023-03-11T01:13:19;4.27;;;2.67;;
15946;SDS011;8072;52.554;7.966;2023-03-11T01:15:45;3.17;;;2.87;;
15946;SDS011;8072;52.554;7.966;2023-03-11T01:18:11;4.17;;;2.77;;
15946;SDS011;8072;52.554;7.966;2023-03-11T01:20:38;5.67;;;2.90;;
15946;SDS011;8072;52.554;7.966;2023-03-11T01:23:04;5.20;;;2.80;;
15946;SDS011;8072;52.554;7.966;2023-03-11T01:25:31;3.67;;;2.80;;
15946;SDS011;8072;52.554;7.966;2023-03-11T01:27:57;3.87;;;3.00;;
15946;SDS011;8072;52.554;7.966;2023-03-11T01:30:24;3.67;;;2.57;;
15946;SDS011;8072;52.554;7.966;2023-03-11T01:32:51;3.80;;;2.70;;
15946;SDS011;8072;52.554;7.966;2023-03-11T01:35:19;3.93;;;2.83;;
15946;SDS011;8072;52.554;7.966;2023-03-11T01:37:46;5.33;;;2.57;;
15946;SDS011;8072;52.554;7.966;2023-03-11T01:40:23;6.40;;;2.60;;
15946;SDS011;8072;52.554;7.966;2023-03-11T01:42:50;7.70;;;2.93;;
15946;SDS011;8072;52.554;7.966;2023-03-11T01:48:07;6.37;;;2.73;;
15946;SDS011;8072;52.554;7.966;2023-03-11T01:50:35;4.70;;;2.50;;
15946;SDS011;8072;52.554;7.966;2023-03-11T01:53:07;3.03;;;2.73;;
15946;SDS011;8072;52.554;7.966;2023-03-11T01:55:33;6.10;;;3.00;;
15946;SDS011;8072;52.554;7.966;2023-03-11T01:58:00;4.60;;;2.80;;
15946;SDS011;8072;52.554;7.966;2023-03-11T02:00:29;6.83;;;2.97;;
15946;SDS011;8072;52.554;7.966;2023-03-11T02:02:56;3.70;;;2.53;;
15946;SDS011;8072;52.554;7.966;2023-03-11T02:05:24;3.80;;;2.47;;
15946;SDS011;8072;52.554;7.966;2023-03-11T02:07:51;4.73;;;2.47;;
15946;SDS011;8072;52.554;7.966;2023-03-11T02:10:18;7.07;;;2.40;;
15946;SDS011;8072;52.554;7.966;2023-03-11T02:12:45;3.70;;;2.23;;
15946;SDS011;8072;52.554;7.966;2023-03-11T02:15:13;8.53;;;2.70;;
15946;SDS011;8072;52.554;7.966;2023-03-11T02:17:40;8.30;;;2.10;;
15946;SDS011;8072;52.554;7.966;2023-03-11T02:22:40;6.87;;;2.50;;
15946;SDS011;8072;52.554;7.966;2023-03-11T02:25:09;5.63;;;2.17;;
15946;SDS011;8072;52.554;7.966;2023-03-11T02:27:42;2.83;;;1.90;;
15946;SDS011;8072;52.554;7.966;2023-03-11T02:30:12;5.97;;;2.50;;
15946;SDS011;8072;52.554;7.966;2023-03-11T02:32:39;7.03;;;2.60;;
15946;SDS011;8072;52.554;7.966;2023-03-11T02:35:08;8.37;;;2.80;;
15946;SDS011;8072;52.554;7.966;2023-03-11T02:37:34;5.17;;;2.13;;
15946;SDS011;8072;52.554;7.966;2023-03-11T02:42:44;3.10;;;2.27;;
15946;SDS011;8072;52.554;7.966;2023-03-11T02:45:11;4.30;;;2.07;;
15946;SDS011;8072;52.554;7.966;2023-03-11T02:47:40;4.73;;;2.40;;
15946;SDS011;8072;52.554;7.966;2023-03-11T02:50:06;9.30;;;2.70;;
15946;SDS011;8072;52.554;7.966;2023-03-11T02:52:36;2.73;;;2.00;;
15946;SDS011;8072;52.554;7.966;2023-03-11T02:55:02;2.47;;;2.27;;
15946;SDS011;8072;52.554;7.966;2023-03-11T02:57:28;4.60;;;2.23;;
15946;SDS011;8072;52.554;7.966;2023-03-11T02:59:54;3.13;;;2.20;;
15946;SDS011;8072;52.554;7.966;2023-03-11T03:02:20;3.83;;;2.33;;
15946;SDS011;8072;52.554;7.966;2023-03-11T03:04:46;5.00;;;2.30;;
15946;SDS011;8072;52.554;7.966;2023-03-11T03:07:12;4.97;;;2.37;;
15946;SDS011;8072;52.554;7.966;2023-03-11T03:09:37;6.23;;;2.03;;
15946;SDS011;8072;52.554;7.966;2023-03-11T03:12:04;6.63;;;2.53;;
15946;SDS011;8072;52.554;7.966;2023-03-11T03:14:30;5.20;;;2.47;;
15946;SDS011;8072;52.554;7.966;2023-03-11T03:16:57;3.47;;;2.37;;
15946;SDS011;8072;52.554;7.966;2023-03-11T03:19:23;7.27;;;2.20;;
15946;SDS011;8072;52.554;7.966;2023-03-11T03:21:49;2.60;;;2.40;;
15946;SDS011;8072;52.554;7.966;2023-03-11T03:24:15;4.10;;;2.40;;
15946;SDS011;8072;52.554;7.966;2023-03-11T03:26:41;2.50;;;2.30;;
15946;SDS011;8072;52.554;7.966;2023-03-11T03:29:06;2.07;;;1.77;;
15946;SDS011;8072;52.554;7.966;2023-03-11T03:31:32;6.80;;;2.33;;
15946;SDS011;8072;52.554;7.966;2023-03-11T03:33:58;3.27;;;2.30;;
15946;SDS011;8072;52.554;7.966;2023-03-11T03:36:24;2.03;;;1.87;;
15946;SDS011;8072;52.554;7.966;2023-03-11T03:38:54;3.43;;;2.20;;
15946;SDS011;8072;52.554;7.966;2023-03-11T03:41:21;3.33;;;2.27;;
15946;SDS011;8072;52.554;7.966;2023-03-11T03:43:46;2.80;;;1.97;;
15946;SDS011;8072;52.554;7.966;2023-03-11T03:46:12;5.33;;;2.30;;
15946;SDS011;8072;52.554;7.966;2023-03-11T03:48:38;4.40;;;2.23;;
15946;SDS011;8072;52.554;7.966;2023-03-11T03:51:04;3.10;;;1.90;;
15946;SDS011;8072;52.554;7.966;2023-03-11T03:53:33;3.43;;;2.00;;
15946;SDS011;8072;52.554;7.966;2023-03-11T03:56:03;2.60;;;2.37;;
15946;SDS011;8072;52.554;7.966;2023-03-11T03:58:31;4.57;;;2.23;;
15946;SDS011;8072;52.554;7.966;2023-03-11T04:00:57;6.27;;;2.30;;
15946;SDS011;8072;52.554;7.966;2023-03-11T04:03:30;4.63;;;2.27;;
15946;SDS011;8072;52.554;7.966;2023-03-11T04:06:09;4.80;;;2.27;;
15946;SDS011;8072;52.554;7.966;2023-03-11T04:08:45;2.50;;;2.03;;
15946;SDS011;8072;52.554;7.966;2023-03-11T04:11:13;5.50;;;2.10;;
15946;SDS011;8072;52.554;7.966;2023-03-11T04:13:39;4.27;;;2.13;;
15946;SDS011;8072;52.554;7.966;2023-03-11T04:16:06;7.20;;;2.20;;
15946;SDS011;8072;52.554;7.966;2023-03-11T04:18:32;4.87;;;2.30;;
15946;SDS011;8072;52.554;7.966;2023-03-11T04:20:58;2.10;;;2.00;;
15946;SDS011;8072;52.554;7.966;2023-03-11T04:23:24;5.90;;;2.33;;
15946;SDS011;8072;52.554;7.966;2023-03-11T04:25:50;5.37;;;2.30;;
15946;SDS011;8072;52.554;7.966;2023-03-11T04:28:16;6.97;;;2.17;;
15946;SDS011;8072;52.554;7.966;2023-03-11T04:30:41;5.87;;;2.37;;
15946;SDS011;8072;52.554;7.966;2023-03-11T04:33:07;2.87;;;2.10;;
15946;SDS011;8072;52.554;7.966;2023-03-11T04:35:33;3.67;;;1.90;;
15946;SDS011;8072;52.554;7.966;2023-03-11T04:38:02;3.37;;;2.53;;
15946;SDS011;8072;52.554;7.966;2023-03-11T04:40:28;5.37;;;1.97;;
15946;SDS011;8072;52.554;7.966;2023-03-11T04:42:53;3.73;;;2.10;;
15946;SDS011;8072;52.554;7.966;2023-03-11T04:45:20;3.90;;;2.10;;
15946;SDS011;8072;52.554;7.966;2023-03-11T04:47:46;5.33;;;2.13;;
15946;SDS011;8072;52.554;7.966;2023-03-11T04:50:13;2.60;;;1.97;;
15946;SDS011;8072;52.554;7.966;2023-03-11T04:52:39;3.80;;;2.50;;
15946;SDS011;8072;52.554;7.966;2023-03-11T04:55:05;5.57;;;2.00;;
15946;SDS011;8072;52.554;7.966;2023-03-11T04:57:31;5.30;;;2.00;;
15946;SDS011;8072;52.554;7.966;2023-03-11T04:59:57;6.57;;;2.07;;
15946;SDS011;8072;52.554;7.966;2023-03-11T05:02:23;4.00;;;2.13;;
15946;SDS011;8072;52.554;7.966;2023-03-11T05:04:49;2.43;;;2.10;;
15946;SDS011;8072;52.554;7.966;2023-03-11T05:07:15;2.77;;;1.87;;
15946;SDS011;8072;52.554;7.966;2023-03-11T05:09:40;4.63;;;1.93;;
15946;SDS011;8072;52.554;7.966;2023-03-11T05:12:06;3.50;;;1.83;;
15946;SDS011;8072;52.554;7.966;2023-03-11T05:14:34;4.93;;;2.00;;
15946;SDS011;8072;52.554;7.966;2023-03-11T05:17:00;8.20;;;2.70;;
15946;SDS011;8072;52.554;7.966;2023-03-11T05:19:26;6.33;;;1.97;;
15946;SDS011;8072;52.554;7.966;2023-03-11T05:21:55;3.53;;;1.87;;
15946;SDS011;8072;52.554;7.966;2023-03-11T05:24:21;1.70;;;1.60;;
15946;SDS011;8072;52.554;7.966;2023-03-11T05:26:47;4.23;;;2.13;;
15946;SDS011;8072;52.554;7.966;2023-03-11T05:29:13;4.07;;;1.83;;
15946;SDS011;8072;52.554;7.966;2023-03-11T05:31:39;6.47;;;1.93;;
15946;SDS011;8072;52.554;7.966;2023-03-11T05:34:04;5.53;;;2.10;;
15946;SDS011;8072;52.554;7.966;2023-03-11T05:36:30;3.20;;;2.10;;
15946;SDS011;8072;52.554;7.966;2023-03-11T05:38:56;5.40;;;1.83;;
15946;SDS011;8072;52.554;7.966;2023-03-11T05:41:22;4.80;;;2.23;;
15946;SDS011;8072;52.554;7.966;2023-03-11T05:43:48;4.83;;;2.20;;
15946;SDS011;8072;52.554;7.966;2023-03-11T05:46:14;3.47;;;2.20;;
15946;SDS011;8072;52.554;7.966;2023-03-11T05:48:39;6.00;;;1.83;;
15946;SDS011;8072;52.554;7.966;2023-03-11T05:51:09;3.37;;;1.90;;
15946;SDS011;8072;52.554;7.966;2023-03-11T05:53:35;2.70;;;2.20;;
15946;SDS011;8072;52.554;7.966;2023-03-11T05:56:01;2.90;;;2.10;;
15946;SDS011;8072;52.554;7.966;2023-03-11T05:58:28;2.23;;;1.80;;
15946;SDS011;8072;52.554;7.966;2023-03-11T06:00:55;2.33;;;1.90;;
15946;SDS011;8072;52.554;7.966;2023-03-11T06:03:21;3.13;;;1.80;;
15946;SDS011;8072;52.554;7.966;2023-03-11T06:05:47;4.33;;;2.10;;
15946;SDS011;8072;52.554;7.966;2023-03-11T06:08:14;4.77;;;2.07;;
15946;SDS011;8072;52.554;7.966;2023-03-11T06:10:41;2.43;;;2.10;;
15946;SDS011;8072;52.554;7.966;2023-03-11T06:13:07;3.77;;;2.03;;
15946;SDS011;8072;52.554;7.966;2023-03-11T06:15:33;4.60;;;2.10;;
15946;SDS011;8072;52.554;7.966;2023-03-11T06:18:00;4.10;;;2.10;;
15946;SDS011;8072;52.554;7.966;2023-03-11T06:20:26;2.47;;;2.10;;
15946;SDS011;8072;52.554;7.966;2023-03-11T06:22:52;3.77;;;2.10;;
15946;SDS011;8072;52.554;7.966;2023-03-11T06:25:18;2.13;;;2.00;;
15946;SDS011;8072;52.554;7.966;2023-03-11T06:27:47;2.40;;;2.20;;
15946;SDS011;8072;52.554;7.966;2023-03-11T06:30:15;4.10;;;2.67;;
15946;SDS011;8072;52.554;7.966;2023-03-11T06:32:45;3.47;;;2.00;;
15946;SDS011;8072;52.554;7.966;2023-03-11T06:35:11;5.77;;;2.20;;
15946;SDS011;8072;52.554;7.966;2023-03-11T06:37:38;2.10;;;1.90;;
15946;SDS011;8072;52.554;7.966;2023-03-11T06:40:04;4.17;;;2.10;;
15946;SDS011;8072;52.554;7.966;2023-03-11T06:42:32;5.97;;;2.23;;
15946;SDS011;8072;52.554;7.966;2023-03-11T06:44:58;3.60;;;2.00;;
15946;SDS011;8072;52.554;7.966;2023-03-11T06:47:24;2.90;;;1.80;;
15946;SDS011;8072;52.554;7.966;2023-03-11T06:49:50;4.73;;;2.40;;
15946;SDS011;8072;52.554;7.966;2023-03-11T06:52:16;4.53;;;2.10;;
15946;SDS011;8072;52.554;7.966;2023-03-11T06:54:42;3.40;;;2.13;;
15946;SDS011;8072;52.554;7.966;2023-03-11T06:57:08;2.40;;;2.20;;
15946;SDS011;8072;52.554;7.966;2023-03-11T06:59:34;5.27;;;2.53;;
15946;SDS011;8072;52.554;7.966;2023-03-11T07:02:01;7.00;;;2.40;;
15946;SDS011;8072;52.554;7.966;2023-03-11T07:04:29;2.30;;;2.10;;
15946;SDS011;8072;52.554;7.966;2023-03-11T07:06:55;7.17;;;2.20;;
15946;SDS011;8072;52.554;7.966;2023-03-11T07:09:21;9.57;;;3.03;;
15946;SDS011;8072;52.554;7.966;2023-03-11T07:11:49;3.03;;;2.10;;
15946;SDS011;8072;52.554;7.966;2023-03-11T07:14:16;5.20;;;2.00;;
15946;SDS011;8072;52.554;7.966;2023-03-11T07:16:42;4.10;;;2.10;;
15946;SDS011;8072;52.554;7.966;2023-03-11T07:19:09;3.80;;;2.00;;
15946;SDS011;8072;52.554;7.966;2023-03-11T07:21:36;2.00;;;1.90;;
15946;SDS011;8072;52.554;7.966;2023-03-11T07:24:03;9.90;;;2.53;;
15946;SDS011;8072;52.554;7.966;2023-03-11T07:26:30;4.17;;;2.20;;
15946;SDS011;8072;52.554;7.966;2023-03-11T07:28:58;5.43;;;2.33;;
15946;SDS011;8072;52.554;7.966;2023-03-11T07:31:25;3.57;;;2.20;;
15946;SDS011;8072;52.554;7.966;2023-03-11T07:33:53;2.27;;;1.97;;
15946;SDS011;8072;52.554;7.966;2023-03-11T07:36:22;3.57;;;2.17;;
15946;SDS011;8072;52.554;7.966;2023-03-11T07:38:53;2.50;;;1.87;;
15946;SDS011;8072;52.554;7.966;2023-03-11T07:41:22;3.17;;;2.30;;
15946;SDS011;8072;52.554;7.966;2023-03-11T07:43:48;2.27;;;2.07;;
15946;SDS011;8072;52.554;7.966;2023-03-11T07:46:15;3.97;;;2.37;;
15946;SDS011;8072;52.554;7.966;2023-03-11T07:48:47;5.83;;;2.20;;
15946;SDS011;8072;52.554;7.966;2023-03-11T07:51:15;3.33;;;2.17;;
15946;SDS011;8072;52.554;7.966;2023-03-11T07:53:42;2.67;;;2.37;;
15946;SDS011;8072;52.554;7.966;2023-03-11T07:56:09;4.33;;;2.30;;
15946;SDS011;8072;52.554;7.966;2023-03-11T07:58:36;6.30;;;3.07;;
15946;SDS011;8072;52.554;7.966;2023-03-11T08:01:07;19.27;;;6.20;;
15946;SDS011;8072;52.554;7.966;2023-03-11T08:03:35;7.33;;;3.00;;
15946;SDS011;8072;52.554;7.966;2023-03-11T08:06:02;3.67;;;2.27;;
15946;SDS011;8072;52.554;7.966;2023-03-11T08:08:35;4.00;;;2.23;;
15946;SDS011;8072;52.554;7.966;2023-03-11T08:11:02;4.40;;;2.50;;
15946;SDS011;8072;52.554;7.966;2023-03-11T08:13:28;3.10;;;1.77;;
15946;SDS011;8072;52.554;7.966;2023-03-11T08:15:53;3.40;;;2.40;;
15946;SDS011;8072;52.554;7.966;2023-03-11T08:18:19;4.20;;;2.00;;
15946;SDS011;8072;52.554;7.966;2023-03-11T08:20:45;4.60;;;2.33;;
15946;SDS011;8072;52.554;7.966;2023-03-11T08:23:11;7.90;;;2.00;;
15946;SDS011;8072;52.554;7.966;2023-03-11T08:25:38;6.07;;;2.33;;
15946;SDS011;8072;52.554;7.966;2023-03-11T08:28:05;3.50;;;2.50;;
15946;SDS011;8072;52.554;7.966;2023-03-11T08:30:32;3.53;;;2.30;;
15946;SDS011;8072;52.554;7.966;2023-03-11T08:32:58;4.90;;;2.47;;
15946;SDS011;8072;52.554;7.966;2023-03-11T08:35:24;2.70;;;2.37;;
15946;SDS011;8072;52.554;7.966;2023-03-11T08:37:51;2.40;;;2.10;;
15946;SDS011;8072;52.554;7.966;2023-03-11T08:40:17;5.60;;;2.40;;
15946;SDS011;8072;52.554;7.966;2023-03-11T08:42:43;3.73;;;2.37;;
15946;SDS011;8072;52.554;7.966;2023-03-11T08:45:09;6.83;;;2.40;;
15946;SDS011;8072;52.554;7.966;2023-03-11T08:47:36;4.77;;;2.20;;
15946;SDS011;8072;52.554;7.966;2023-03-11T08:50:07;6.20;;;2.30;;
15946;SDS011;8072;52.554;7.966;2023-03-11T08:52:36;2.57;;;2.10;;
15946;SDS011;8072;52.554;7.966;2023-03-11T08:55:02;2.80;;;2.27;;
15946;SDS011;8072;52.554;7.966;2023-03-11T08:57:29;4.77;;;2.40;;
15946;SDS011;8072;52.554;7.966;2023-03-11T08:59:56;7.27;;;2.30;;
15946;SDS011;8072;52.554;7.966;2023-03-11T09:02:25;2.77;;;2.10;;
15946;SDS011;8072;52.554;7.966;2023-03-11T09:04:51;3.27;;;2.27;;
15946;SDS011;8072;52.554;7.966;2023-03-11T09:07:17;4.03;;;2.27;;
15946;SDS011;8072;52.554;7.966;2023-03-11T09:09:43;3.20;;;2.17;;
15946;SDS011;8072;52.554;7.966;2023-03-11T09:12:09;3.57;;;2.20;;
15946;SDS011;8072;52.554;7.966;2023-03-11T09:14:38;5.40;;;1.87;;
15946;SDS011;8072;52.554;7.966;2023-03-11T09:17:05;2.40;;;1.80;;
15946;SDS011;8072;52.554;7.966;2023-03-11T09:19:32;4.63;;;2.57;;
15946;SDS011;8072;52.554;7.966;2023-03-11T09:21:58;3.67;;;2.20;;
15946;SDS011;8072;52.554;7.966;2023-03-11T09:24:25;2.47;;;1.90;;
15946;SDS011;8072;52.554;7.966;2023-03-11T09:26:51;4.50;;;2.00;;
15946;SDS011;8072;52.554;7.966;2023-03-11T09:29:17;2.53;;;2.10;;
15946;SDS011;8072;52.554;7.966;2023-03-11T09:31:43;4.43;;;2.43;;
15946;SDS011;8072;52.554;7.966;2023-03-11T09:34:09;9.93;;;2.57;;
15946;SDS011;8072;52.554;7.966;2023-03-11T09:36:39;5.03;;;2.43;;
15946;SDS011;8072;52.554;7.966;2023-03-11T09:39:05;6.20;;;2.50;;
15946;SDS011;8072;52.554;7.966;2023-03-11T09:52:13;4.17;;;1.93;;
15946;SDS011;8072;52.554;7.966;2023-03-11T09:54:46;3.13;;;1.90;;
15946;SDS011;8072;52.554;7.966;2023-03-11T09:57:19;4.47;;;2.23;;
15946;SDS011;8072;52.554;7.966;2023-03-11T09:59:49;5.00;;;1.97;;
15946;SDS011;8072;52.554;7.966;2023-03-11T10:02:19;3.27;;;2.00;;
15946;SDS011;8072;52.554;7.966;2023-03-11T10:04:53;4.03;;;2.20;;
15946;SDS011;8072;52.554;7.966;2023-03-11T10:07:40;3.57;;;2.03;;
15946;SDS011;8072;52.554;7.966;2023-03-11T10:10:14;4.13;;;2.03;;
15946;SDS011;8072;52.554;7.966;2023-03-11T10:26:11;7.07;;;1.90;;
15946;SDS011;8072;52.554;7.966;2023-03-11T10:33:54;1.67;;;1.57;;
15946;SDS011;8072;52.554;7.966;2023-03-11T10:36:25;3.23;;;2.17;;
15946;SDS011;8072;52.554;7.966;2023-03-11T10:38:59;5.47;;;1.90;;
15946;SDS011;8072;52.554;7.966;2023-03-11T10:44:10;4.50;;;2.00;;
15946;SDS011;8072;52.554;7.966;2023-03-11T10:46:43;3.50;;;1.83;;
15946;SDS011;8072;52.554;7.966;2023-03-11T10:49:13;3.60;;;2.10;;
15946;SDS011;8072;52.554;7.966;2023-03-11T10:51:41;5.70;;;2.17;;
15946;SDS011;8072;52.554;7.966;2023-03-11T10:54:19;6.20;;;1.80;;
15946;SDS011;8072;52.554;7.966;2023-03-11T10:56:55;2.67;;;1.70;;
15946;SDS011;8072;52.554;7.966;2023-03-11T10:59:24;2.23;;;1.80;;
15946;SDS011;8072;52.554;7.966;2023-03-11T11:01:54;2.60;;;1.80;;
15946;SDS011;8072;52.554;7.966;2023-03-11T11:04:46;6.93;;;2.00;;
15946;SDS011;8072;52.554;7.966;2023-03-11T11:10:17;2.60;;;1.60;;
15946;SDS011;8072;52.554;7.966;2023-03-11T11:12:57;4.10;;;1.50;;
15946;SDS011;8072;52.554;7.966;2023-03-11T11:17:51;1.67;;;1.57;;
15946;SDS011;8072;52.554;7.966;2023-03-11T11:20:20;3.30;;;2.20;;
15946;SDS011;8072;52.554;7.966;2023-03-11T11:22:47;4.57;;;1.60;;
15946;SDS011;8072;52.554;7.966;2023-03-11T11:25:29;2.63;;;1.73;;
15946;SDS011;8072;52.554;7.966;2023-03-11T11:28:01;7.83;;;1.90;;
15946;SDS011;8072;52.554;7.966;2023-03-11T11:30:29;3.20;;;1.50;;
15946;SDS011;8072;52.554;7.966;2023-03-11T11:32:55;3.83;;;1.50;;
15946;SDS011;8072;52.554;7.966;2023-03-11T11:35:51;5.00;;;1.97;;
15946;SDS011;8072;52.554;7.966;2023-03-11T11:38:20;6.03;;;1.83;;
15946;SDS011;8072;52.554;7.966;2023-03-11T11:40:51;5.20;;;2.07;;
15946;SDS011;8072;52.554;7.966;2023-03-11T11:43:20;4.07;;;2.00;;
15946;SDS011;8072;52.554;7.966;2023-03-11T11:46:11;4.23;;;2.03;;
15946;SDS011;8072;52.554;7.966;2023-03-11T11:51:23;3.87;;;2.17;;
15946;SDS011;8072;52.554;7.966;2023-03-11T11:56:31;5.57;;;2.00;;
15946;SDS011;8072;52.554;7.966;2023-03-11T11:58:57;2.97;;;2.10;;
15946;SDS011;8072;52.554;7.966;2023-03-11T12:07:17;2.97;;;1.80;;
15946;SDS011;8072;52.554;7.966;2023-03-11T12:15:23;5.30;;;1.90;;
15946;SDS011;8072;52.554;7.966;2023-03-11T12:17:54;4.10;;;2.07;;
15946;SDS011;8072;52.554;7.966;2023-03-11T12:20:28;2.83;;;1.70;;
15946;SDS011;8072;52.554;7.966;2023-03-11T12:31:25;5.30;;;1.60;;
15946;SDS011;8072;52.554;7.966;2023-03-11T12:33:55;3.77;;;1.33;;
15946;SDS011;8072;52.554;7.966;2023-03-11T12:36:30;7.93;;;2.07;;
15946;SDS011;8072;52.554;7.966;2023-03-11T12:39:02;3.40;;;1.30;;
15946;SDS011;8072;52.554;7.966;2023-03-11T12:41:43;5.60;;;1.37;;
15946;SDS011;8072;52.554;7.966;2023-03-11T12:44:25;5.93;;;1.70;;
15946;SDS011;8072;52.554;7.966;2023-03-11T12:49:38;2.30;;;1.50;;
15946;SDS011;8072;52.554;7.966;2023-03-11T12:55:23;3.57;;;1.37;;
15946;SDS011;8072;52.554;7.966;2023-03-11T13:11:35;4.63;;;1.43;;
15946;SDS011;8072;52.554;7.966;2023-03-11T13:19:48;3.37;;;1.40;;
15946;SDS011;8072;52.554;7.966;2023-03-11T13:28:12;2.80;;;1.43;;
15946;SDS011;8072;52.554;7.966;2023-03-11T13:42:02;4.43;;;2.33;;
15946;SDS011;8072;52.554;7.966;2023-03-11T13:44:52;2.43;;;1.50;;
15946;SDS011;8072;52.554;7.966;2023-03-11T13:47:18;2.40;;;1.30;;
15946;SDS011;8072;52.554;7.966;2023-03-11T13:52:53;7.87;;;1.50;;
15946;SDS011;8072;52.554;7.966;2023-03-11T13:55:20;3.97;;;1.23;;
15946;SDS011;8072;52.554;7.966;2023-03-11T13:58:14;2.83;;;1.40;;
15946;SDS011;8072;52.554;7.966;2023-03-11T14:00:47;3.13;;;1.40;;
15946;SDS011;8072;52.554;7.966;2023-03-11T14:03:15;6.07;;;1.40;;
15946;SDS011;8072;52.554;7.966;2023-03-11T14:05:46;3.80;;;1.40;;
15946;SDS011;8072;52.554;7.966;2023-03-11T14:08:31;2.87;;;1.40;;
15946;SDS011;8072;52.554;7.966;2023-03-11T14:16:14;2.90;;;1.43;;
15946;SDS011;8072;52.554;7.966;2023-03-11T14:18:43;5.10;;;1.33;;
15946;SDS011;8072;52.554;7.966;2023-03-11T14:21:11;7.23;;;1.37;;
15946;SDS011;8072;52.554;7.966;2023-03-11T14:23:46;2.87;;;1.27;;
15946;SDS011;8072;52.554;7.966;2023-03-11T14:26:21;2.67;;;1.50;;
15946;SDS011;8072;52.554;7.966;2023-03-11T14:28:54;4.57;;;1.40;;
15946;SDS011;8072;52.554;7.966;2023-03-11T14:33:59;4.47;;;1.30;;
15946;SDS011;8072;52.554;7.966;2023-03-11T14:44:53;5.50;;;1.30;;
15946;SDS011;8072;52.554;7.966;2023-03-11T14:49:58;3.10;;;1.37;;
15946;SDS011;8072;52.554;7.966;2023-03-11T14:54:59;3.23;;;1.10;;
15946;SDS011;8072;52.554;7.966;2023-03-11T14:57:39;6.00;;;1.60;;
15946;SDS011;8072;52.554;7.966;2023-03-11T15:00:12;1.50;;;1.30;;
15946;SDS011;8072;52.554;7.966;2023-03-11T15:08:19;2.50;;;1.27;;
15946;SDS011;8072;52.554;7.966;2023-03-11T15:11:34;2.40;;;1.30;;
15946;SDS011;8072;52.554;7.966;2023-03-11T15:13:33;4.80;;;1.43;;
15946;SDS011;8072;52.554;7.966;2023-03-11T15:16:01;4.07;;;1.30;;
15946;SDS011;8072;52.554;7.966;2023-03-11T15:18:33;4.63;;;1.30;;
15946;SDS011;8072;52.554;7.966;2023-03-11T15:21:24;2.30;;;1.03;;
15946;SDS011;8072;52.554;7.966;2023-03-11T15:23:56;2.90;;;1.10;;
15946;SDS011;8072;52.554;7.966;2023-03-11T15:26:31;3.50;;;1.13;;
15946;SDS011;8072;52.554;7.966;2023-03-11T15:29:00;3.70;;;0.97;;
15946;SDS011;8072;52.554;7.966;2023-03-11T15:31:36;2.07;;;1.17;;
15946;SDS011;8072;52.554;7.966;2023-03-11T15:34:07;4.27;;;1.40;;
15946;SDS011;8072;52.554;7.966;2023-03-11T15:41:42;6.30;;;1.50;;
15946;SDS011;8072;52.554;7.966;2023-03-11T15:44:19;7.70;;;1.30;;
15946;SDS011;8072;52.554;7.966;2023-03-11T15:46:46;3.57;;;1.30;;
15946;SDS011;8072;52.554;7.966;2023-03-11T15:49:11;2.60;;;1.30;;
15946;SDS011;8072;52.554;7.966;2023-03-11T15:51:37;3.13;;;1.30;;
15946;SDS011;8072;52.554;7.966;2023-03-11T15:54:03;5.30;;;1.23;;
15946;SDS011;8072;52.554;7.966;2023-03-11T15:56:29;1.37;;;1.20;;
15946;SDS011;8072;52.554;7.966;2023-03-11T15:58:57;3.47;;;1.30;;
15946;SDS011;8072;52.554;7.966;2023-03-11T16:01:23;3.27;;;1.27;;
15946;SDS011;8072;52.554;7.966;2023-03-11T16:03:53;2.37;;;1.20;;
15946;SDS011;8072;52.554;7.966;2023-03-11T16:06:19;1.30;;;1.07;;
15946;SDS011;8072;52.554;7.966;2023-03-11T16:08:46;4.27;;;1.20;;
15946;SDS011;8072;52.554;7.966;2023-03-11T16:11:13;4.80;;;1.30;;
15946;SDS011;8072;52.554;7.966;2023-03-11T16:13:39;2.87;;;1.30;;
15946;SDS011;8072;52.554;7.966;2023-03-11T16:16:05;2.73;;;1.33;;
15946;SDS011;8072;52.554;7.966;2023-03-11T16:18:36;3.37;;;1.17;;
15946;SDS011;8072;52.554;7.966;2023-03-11T16:21:02;2.37;;;1.20;;
15946;SDS011;8072;52.554;7.966;2023-03-11T16:23:33;4.43;;;1.30;;
15946;SDS011;8072;52.554;7.966;2023-03-11T16:26:01;3.90;;;1.40;;
15946;SDS011;8072;52.554;7.966;2023-03-11T16:28:28;2.23;;;1.30;;
15946;SDS011;8072;52.554;7.966;2023-03-11T16:30:54;5.67;;;1.70;;
15946;SDS011;8072;52.554;7.966;2023-03-11T16:33:20;3.00;;;1.60;;
15946;SDS011;8072;52.554;7.966;2023-03-11T16:35:46;2.70;;;1.57;;
15946;SDS011;8072;52.554;7.966;2023-03-11T16:38:12;5.50;;;2.10;;
15946;SDS011;8072;52.554;7.966;2023-03-11T16:40:38;1.90;;;1.43;;
15946;SDS011;8072;52.554;7.966;2023-03-11T16:43:05;1.43;;;1.30;;
15946;SDS011;8072;52.554;7.966;2023-03-11T16:45:32;2.50;;;1.87;;
15946;SDS011;8072;52.554;7.966;2023-03-11T16:47:58;2.50;;;2.10;;
15946;SDS011;8072;52.554;7.966;2023-03-11T16:50:24;3.20;;;1.77;;
15946;SDS011;8072;52.554;7.966;2023-03-11T16:52:51;4.10;;;2.17;;
15946;SDS011;8072;52.554;7.966;2023-03-11T16:55:18;3.03;;;1.50;;
15946;SDS011;8072;52.554;7.966;2023-03-11T16:57:44;4.50;;;1.83;;
15946;SDS011;8072;52.554;7.966;2023-03-11T17:00:11;2.20;;;2.00;;
15946;SDS011;8072;52.554;7.966;2023-03-11T17:02:38;4.43;;;2.10;;
15946;SDS011;8072;52.554;7.966;2023-03-11T17:05:05;4.50;;;2.00;;
15946;SDS011;8072;52.554;7.966;2023-03-11T17:07:32;5.77;;;2.00;;
15946;SDS011;8072;52.554;7.966;2023-03-11T17:09:58;4.33;;;2.47;;
15946;SDS011;8072;52.554;7.966;2023-03-11T17:12:24;6.97;;;2.40;;
15946;SDS011;8072;52.554;7.966;2023-03-11T17:14:50;5.53;;;2.83;;
15946;SDS011;8072;52.554;7.966;2023-03-11T17:17:17;6.50;;;2.70;;
15946;SDS011;8072;52.554;7.966;2023-03-11T17:19:43;5.30;;;2.40;;
15946;SDS011;8072;52.554;7.966;2023-03-11T17:22:10;4.40;;;2.37;;
15946;SDS011;8072;52.554;7.966;2023-03-11T17:24:36;3.27;;;2.03;;
15946;SDS011;8072;52.554;7.966;2023-03-11T17:27:02;4.77;;;2.13;;
15946;SDS011;8072;52.554;7.966;2023-03-11T17:29:29;3.93;;;2.27;;
15946;SDS011;8072;52.554;7.966;2023-03-11T17:31:55;8.43;;;2.30;;
15946;SDS011;8072;52.554;7.966;2023-03-11T17:34:21;7.97;;;2.40;;
15946;SDS011;8072;52.554;7.966;2023-03-11T17:36:47;2.63;;;2.30;;